sensor_id;sensor_type;location;lat;lon;timestamp;pressure;altitude;pressure_sealevel;temperature;humidity
81608;BME280;71022;48.122;11.576;2024-02-21T00:00:34;96602.56;;;6.92;60.31
81608;BME280;71022;48.122;11.576;2024-02-21T00:03:01;96603.53;;;6.96;59.83
81608;BME280;71022;48.122;11.576;2024-02-21T00:05:32;96600.84;;;6.83;60.26
81608;BME280;71022;48.122;11.576;2024-02-21T00:07:59;96603.16;;;6.89;60.30
81608;BME280;71022;48.122;11.576;2024-02-21T00:10:26;96606.38;;;6.91;60.03
81608;BME280;71022;48.122;11.576;2024-02-21T00:12:54;96601.94;;;6.95;60.72
81608;BME280;71022;48.122;11.576;2024-02-21T00:15:21;96599.41;;;6.85;60.47
81608;BME280;71022;48.122;11.576;2024-02-21T00:17:49;96599.53;;;6.80;61.01
81608;BME280;71022;48.122;11.576;2024-02-21T00:20:16;96599.22;;;6.82;61.12
81608;BME280;71022;48.122;11.576;2024-02-21T00:22:44;96597.50;;;6.86;60.63
81608;BME280;71022;48.122;11.576;2024-02-21T00:25:11;96584.94;;;6.98;60.53
81608;BME280;71022;48.122;11.576;2024-02-21T00:27:39;96590.81;;;6.78;61.43
81608;BME280;71022;48.122;11.576;2024-02-21T00:30:07;96588.00;;;6.83;61.23
81608;BME280;71022;48.122;11.576;2024-02-21T00:32:34;96576.47;;;6.86;61.18
81608;BME280;71022;48.122;11.576;2024-02-21T00:35:01;96578.88;;;6.88;61.42
81608;BME280;71022;48.122;11.576;2024-02-21T00:37:29;96581.53;;;6.79;61.64
81608;BME280;71022;48.122;11.576;2024-02-21T00:39:56;96570.81;;;6.83;61.27
81608;BME280;71022;48.122;11.576;2024-02-21T00:42:23;96573.03;;;6.67;61.74
81608;BME280;71022;48.122;11.576;2024-02-21T00:44:50;96558.91;;;6.65;62.23
81608;BME280;71022;48.122;11.576;2024-02-21T00:47:17;96563.44;;;6.83;61.57
81608;BME280;71022;48.122;11.576;2024-02-21T00:49:45;96561.69;;;6.87;61.28
81608;BME280;71022;48.122;11.576;2024-02-21T00:52:12;96554.84;;;6.76;61.55
81608;BME280;71022;48.122;11.576;2024-02-21T00:54:39;96564.94;;;6.76;61.65
81608;BME280;71022;48.122;11.576;2024-02-21T00:57:19;96559.50;;;6.62;62.04
81608;BME280;71022;48.122;11.576;2024-02-21T00:59:46;96562.53;;;6.74;61.62
81608;BME280;71022;48.122;11.576;2024-02-21T01:02:14;96562.72;;;6.64;61.45
81608;BME280;71022;48.122;11.576;2024-02-21T01:04:41;96560.41;;;6.71;61.86
81608;BME280;71022;48.122;11.576;2024-02-21T01:07:08;96556.91;;;6.30;62.78
81608;BME280;71022;48.122;11.576;2024-02-21T01:09:35;96555.25;;;6.29;63.41
81608;BME280;71022;48.122;11.576;2024-02-21T01:12:03;96557.91;;;6.47;63.12
81608;BME280;71022;48.122;11.576;2024-02-21T01:14:30;96545.53;;;6.63;62.69
81608;BME280;71022;48.122;11.576;2024-02-21T01:16:57;96553.22;;;6.75;62.28
81608;BME280;71022;48.122;11.576;2024-02-21T01:19:25;96544.72;;;6.77;62.04
81608;BME280;71022;48.122;11.576;2024-02-21T01:21:52;96549.38;;;6.90;61.69
81608;BME280;71022;48.122;11.576;2024-02-21T01:24:19;96541.09;;;6.67;62.09
81608;BME280;71022;48.122;11.576;2024-02-21T01:26:47;96532.59;;;6.69;62.35
81608;BME280;71022;48.122;11.576;2024-02-21T01:29:14;96527.13;;;6.69;62.27
81608;BME280;71022;48.122;11.576;2024-02-21T01:31:41;96534.00;;;6.66;62.64
81608;BME280;71022;48.122;11.576;2024-02-21T01:34:09;96527.13;;;6.69;62.28
81608;BME280;71022;48.122;11.576;2024-02-21T01:36:36;96529.97;;;6.64;62.38
81608;BME280;71022;48.122;11.576;2024-02-21T01:39:03;96535.03;;;6.71;61.98
81608;BME280;71022;48.122;11.576;2024-02-21T01:41:31;96527.53;;;6.76;61.63
81608;BME280;71022;48.122;11.576;2024-02-21T01:43:58;96527.75;;;6.66;62.23
81608;BME280;71022;48.122;11.576;2024-02-21T01:46:26;96528.59;;;6.53;62.64
81608;BME280;71022;48.122;11.576;2024-02-21T01:48:57;96521.00;;;6.50;62.96
81608;BME280;71022;48.122;11.576;2024-02-21T01:51:25;96517.75;;;6.61;62.27
81608;BME280;71022;48.122;11.576;2024-02-21T01:53:55;96525.75;;;6.72;62.01
81608;BME280;71022;48.122;11.576;2024-02-21T01:56:23;96517.47;;;6.63;62.07
81608;BME280;71022;48.122;11.576;2024-02-21T01:58:51;96504.31;;;6.65;61.99
81608;BME280;71022;48.122;11.576;2024-02-21T02:01:19;96498.44;;;6.58;62.85
81608;BME280;71022;48.122;11.576;2024-02-21T02:03:48;96494.91;;;6.57;62.47
81608;BME280;71022;48.122;11.576;2024-02-21T02:06:16;96486.97;;;6.47;62.76
81608;BME280;71022;48.122;11.576;2024-02-21T02:08:44;96493.28;;;6.70;62.29
81608;BME280;71022;48.122;11.576;2024-02-21T02:11:13;96487.31;;;6.68;62.52
81608;BME280;71022;48.122;11.576;2024-02-21T02:13:41;96499.47;;;6.62;62.57
81608;BME280;71022;48.122;11.576;2024-02-21T02:16:09;96486.31;;;6.64;61.97
81608;BME280;71022;48.122;11.576;2024-02-21T02:18:36;96478.44;;;6.62;62.59
81608;BME280;71022;48.122;11.576;2024-02-21T02:21:10;96477.22;;;6.55;63.08
81608;BME280;71022;48.122;11.576;2024-02-21T02:23:41;96477.41;;;6.72;62.57
81608;BME280;71022;48.122;11.576;2024-02-21T02:26:09;96473.00;;;6.62;62.54
81608;BME280;71022;48.122;11.576;2024-02-21T02:28:36;96469.75;;;6.60;62.24
81608;BME280;71022;48.122;11.576;2024-02-21T02:31:03;96465.25;;;6.78;62.10
81608;BME280;71022;48.122;11.576;2024-02-21T02:33:30;96461.00;;;6.72;61.79
81608;BME280;71022;48.122;11.576;2024-02-21T02:35:58;96458.22;;;6.63;61.99
81608;BME280;71022;48.122;11.576;2024-02-21T02:38:26;96453.56;;;6.64;61.61
81608;BME280;71022;48.122;11.576;2024-02-21T02:40:53;96452.81;;;6.72;61.80
81608;BME280;71022;48.122;11.576;2024-02-21T02:43:20;96456.25;;;6.42;62.89
81608;BME280;71022;48.122;11.576;2024-02-21T02:45:47;96450.00;;;6.28;63.68
81608;BME280;71022;48.122;11.576;2024-02-21T02:48:14;96454.72;;;6.49;62.55
81608;BME280;71022;48.122;11.576;2024-02-21T02:50:42;96443.19;;;6.52;62.13
81608;BME280;71022;48.122;11.576;2024-02-21T02:53:09;96443.50;;;6.51;62.55
81608;BME280;71022;48.122;11.576;2024-02-21T02:55:36;96430.97;;;6.50;62.57
81608;BME280;71022;48.122;11.576;2024-02-21T02:58:03;96433.97;;;6.62;62.05
81608;BME280;71022;48.122;11.576;2024-02-21T03:00:31;96435.22;;;6.42;62.30
81608;BME280;71022;48.122;11.576;2024-02-21T03:02:58;96426.75;;;6.66;61.75
81608;BME280;71022;48.122;11.576;2024-02-21T03:05:25;96429.41;;;6.71;61.30
81608;BME280;71022;48.122;11.576;2024-02-21T03:07:53;96434.16;;;6.65;61.81
81608;BME280;71022;48.122;11.576;2024-02-21T03:10:20;96429.13;;;6.59;61.23
81608;BME280;71022;48.122;11.576;2024-02-21T03:12:47;96424.84;;;6.66;61.20
81608;BME280;71022;48.122;11.576;2024-02-21T03:15:15;96419.44;;;6.53;61.60
81608;BME280;71022;48.122;11.576;2024-02-21T03:17:42;96423.25;;;6.65;61.54
81608;BME280;71022;48.122;11.576;2024-02-21T03:20:10;96426.41;;;6.81;61.11
81608;BME280;71022;48.122;11.576;2024-02-21T03:22:40;96418.56;;;6.66;60.83
81608;BME280;71022;48.122;11.576;2024-02-21T03:25:09;96417.78;;;6.65;60.68
81608;BME280;71022;48.122;11.576;2024-02-21T03:27:37;96423.94;;;6.71;60.71
81608;BME280;71022;48.122;11.576;2024-02-21T03:30:05;96417.34;;;6.72;60.60
81608;BME280;71022;48.122;11.576;2024-02-21T03:32:32;96423.41;;;6.69;60.81
81608;BME280;71022;48.122;11.576;2024-02-21T03:34:59;96425.78;;;6.62;61.67
81608;BME280;71022;48.122;11.576;2024-02-21T03:37:27;96423.34;;;6.60;60.92
81608;BME280;71022;48.122;11.576;2024-02-21T03:39:54;96432.97;;;6.58;61.65
81608;BME280;71022;48.122;11.576;2024-02-21T03:42:21;96415.63;;;6.54;61.62
81608;BME280;71022;48.122;11.576;2024-02-21T03:44:48;96420.06;;;6.50;61.66
81608;BME280;71022;48.122;11.576;2024-02-21T03:47:15;96415.81;;;6.44;62.05
81608;BME280;71022;48.122;11.576;2024-02-21T03:49:43;96416.13;;;6.42;61.47
81608;BME280;71022;48.122;11.576;2024-02-21T03:52:10;96419.59;;;6.70;60.93
81608;BME280;71022;48.122;11.576;2024-02-21T03:54:37;96411.94;;;6.58;61.70
81608;BME280;71022;48.122;11.576;2024-02-21T03:57:05;96415.00;;;6.57;61.23
81608;BME280;71022;48.122;11.576;2024-02-21T03:59:33;96415.63;;;6.54;61.73
81608;BME280;71022;48.122;11.576;2024-02-21T04:02:00;96416.22;;;6.51;61.50
81608;BME280;71022;48.122;11.576;2024-02-21T04:04:27;96411.53;;;6.65;61.81
81608;BME280;71022;48.122;11.576;2024-02-21T04:06:55;96414.13;;;6.70;61.06
81608;BME280;71022;48.122;11.576;2024-02-21T04:09:22;96417.19;;;6.68;61.76
81608;BME280;71022;48.122;11.576;2024-02-21T04:11:49;96407.84;;;6.69;61.27
81608;BME280;71022;48.122;11.576;2024-02-21T04:14:16;96404.75;;;6.62;61.05
81608;BME280;71022;48.122;11.576;2024-02-21T04:16:44;96400.22;;;6.58;61.47
81608;BME280;71022;48.122;11.576;2024-02-21T04:19:11;96402.69;;;6.46;61.96
81608;BME280;71022;48.122;11.576;2024-02-21T04:21:38;96401.38;;;6.43;62.19
81608;BME280;71022;48.122;11.576;2024-02-21T04:24:05;96395.78;;;6.48;61.82
81608;BME280;71022;48.122;11.576;2024-02-21T04:26:34;96396.00;;;6.52;61.83
81608;BME280;71022;48.122;11.576;2024-02-21T04:29:02;96387.72;;;6.57;61.04
81608;BME280;71022;48.122;11.576;2024-02-21T04:31:32;96382.69;;;6.37;61.50
81608;BME280;71022;48.122;11.576;2024-02-21T04:33:59;96379.25;;;6.45;61.94
81608;BME280;71022;48.122;11.576;2024-02-21T04:36:27;96380.97;;;6.41;62.24
81608;BME280;71022;48.122;11.576;2024-02-21T04:38:54;96380.44;;;6.52;61.26
81608;BME280;71022;48.122;11.576;2024-02-21T04:41:21;96377.16;;;6.64;60.73
81608;BME280;71022;48.122;11.576;2024-02-21T04:43:48;96373.19;;;6.48;61.45
81608;BME280;71022;48.122;11.576;2024-02-21T04:46:16;96374.03;;;6.35;62.07
81608;BME280;71022;48.122;11.576;2024-02-21T04:48:43;96372.31;;;6.39;62.01
81608;BME280;71022;48.122;11.576;2024-02-21T04:51:11;96368.34;;;6.45;61.76
81608;BME280;71022;48.122;11.576;2024-02-21T04:53:39;96357.03;;;6.38;62.04
81608;BME280;71022;48.122;11.576;2024-02-21T04:56:06;96361.69;;;6.37;61.24
81608;BME280;71022;48.122;11.576;2024-02-21T04:58:38;96351.47;;;6.43;61.48
81608;BME280;71022;48.122;11.576;2024-02-21T05:01:05;96350.56;;;6.34;61.98
81608;BME280;71022;48.122;11.576;2024-02-21T05:03:33;96340.66;;;6.38;61.77
81608;BME280;71022;48.122;11.576;2024-02-21T05:06:00;96336.22;;;6.42;61.92
81608;BME280;71022;48.122;11.576;2024-02-21T05:08:28;96334.94;;;6.26;61.48
81608;BME280;71022;48.122;11.576;2024-02-21T05:10:55;96329.09;;;6.19;61.78
81608;BME280;71022;48.122;11.576;2024-02-21T05:13:22;96329.63;;;6.21;61.91
81608;BME280;71022;48.122;11.576;2024-02-21T05:15:50;96324.00;;;6.03;62.54
81608;BME280;71022;48.122;11.576;2024-02-21T05:18:17;96318.81;;;6.16;62.71
81608;BME280;71022;48.122;11.576;2024-02-21T05:20:44;96317.94;;;6.06;62.13
81608;BME280;71022;48.122;11.576;2024-02-21T05:23:11;96306.44;;;5.96;62.75
81608;BME280;71022;48.122;11.576;2024-02-21T05:25:39;96306.25;;;5.92;62.98
81608;BME280;71022;48.122;11.576;2024-02-21T05:28:06;96307.41;;;6.13;62.20
81608;BME280;71022;48.122;11.576;2024-02-21T05:30:34;96306.03;;;6.02;62.03
81608;BME280;71022;48.122;11.576;2024-02-21T05:33:07;96304.03;;;5.81;63.22
81608;BME280;71022;48.122;11.576;2024-02-21T05:35:34;96296.56;;;6.00;62.32
81608;BME280;71022;48.122;11.576;2024-02-21T05:38:03;96303.66;;;5.87;62.36
81608;BME280;71022;48.122;11.576;2024-02-21T05:40:38;96296.03;;;5.98;62.37
81608;BME280;71022;48.122;11.576;2024-02-21T05:43:07;96290.91;;;5.96;62.31
81608;BME280;71022;48.122;11.576;2024-02-21T05:45:35;96290.59;;;5.84;62.66
81608;BME280;71022;48.122;11.576;2024-02-21T05:48:03;96286.50;;;5.73;62.98
81608;BME280;71022;48.122;11.576;2024-02-21T05:50:31;96290.50;;;5.89;61.99
81608;BME280;71022;48.122;11.576;2024-02-21T05:52:59;96284.91;;;6.08;61.73
81608;BME280;71022;48.122;11.576;2024-02-21T05:55:26;96286.84;;;6.07;61.72
81608;BME280;71022;48.122;11.576;2024-02-21T05:57:55;96272.50;;;6.02;61.84
81608;BME280;71022;48.122;11.576;2024-02-21T06:00:24;96269.59;;;5.98;61.84
81608;BME280;71022;48.122;11.576;2024-02-21T06:02:51;96270.09;;;6.00;61.72
81608;BME280;71022;48.122;11.576;2024-02-21T06:05:19;96259.44;;;5.90;61.93
81608;BME280;71022;48.122;11.576;2024-02-21T06:07:46;96251.63;;;5.84;62.27
81608;BME280;71022;48.122;11.576;2024-02-21T06:10:14;96258.34;;;5.64;62.79
81608;BME280;71022;48.122;11.576;2024-02-21T06:12:41;96254.47;;;5.79;62.36
81608;BME280;71022;48.122;11.576;2024-02-21T06:15:09;96257.47;;;5.55;62.25
81608;BME280;71022;48.122;11.576;2024-02-21T06:17:36;96264.28;;;5.66;62.68
81608;BME280;71022;48.122;11.576;2024-02-21T06:20:03;96262.91;;;5.55;63.30
81608;BME280;71022;48.122;11.576;2024-02-21T06:22:31;96269.13;;;5.55;63.02
81608;BME280;71022;48.122;11.576;2024-02-21T06:24:59;96260.69;;;5.57;63.45
81608;BME280;71022;48.122;11.576;2024-02-21T06:27:26;96263.47;;;5.79;62.88
81608;BME280;71022;48.122;11.576;2024-02-21T06:29:53;96246.50;;;5.82;62.23
81608;BME280;71022;48.122;11.576;2024-02-21T06:32:20;96249.44;;;5.86;62.12
81608;BME280;71022;48.122;11.576;2024-02-21T06:34:47;96251.38;;;5.85;62.19
81608;BME280;71022;48.122;11.576;2024-02-21T06:37:15;96253.59;;;5.70;62.31
81608;BME280;71022;48.122;11.576;2024-02-21T06:39:42;96254.28;;;5.89;61.96
81608;BME280;71022;48.122;11.576;2024-02-21T06:42:10;96248.47;;;6.04;61.42
81608;BME280;71022;48.122;11.576;2024-02-21T06:44:38;96252.38;;;6.34;60.68
81608;BME280;71022;48.122;11.576;2024-02-21T06:47:07;96262.19;;;6.35;60.05
81608;BME280;71022;48.122;11.576;2024-02-21T06:49:35;96267.03;;;6.38;60.16
81608;BME280;71022;48.122;11.576;2024-02-21T06:52:05;96256.25;;;6.33;60.42
81608;BME280;71022;48.122;11.576;2024-02-21T06:54:32;96254.13;;;6.30;60.41
81608;BME280;71022;48.122;11.576;2024-02-21T06:56:59;96252.66;;;6.24;60.58
81608;BME280;71022;48.122;11.576;2024-02-21T06:59:27;96241.75;;;6.24;60.23
81608;BME280;71022;48.122;11.576;2024-02-21T07:01:54;96247.69;;;6.26;59.59
81608;BME280;71022;48.122;11.576;2024-02-21T07:04:23;96246.19;;;6.20;60.33
81608;BME280;71022;48.122;11.576;2024-02-21T07:06:50;96242.72;;;6.28;59.81
81608;BME280;71022;48.122;11.576;2024-02-21T07:09:18;96235.81;;;6.30;59.50
81608;BME280;71022;48.122;11.576;2024-02-21T07:11:45;96232.09;;;6.48;59.50
81608;BME280;71022;48.122;11.576;2024-02-21T07:14:14;96240.22;;;6.40;59.24
81608;BME280;71022;48.122;11.576;2024-02-21T07:16:42;96231.66;;;6.55;58.92
81608;BME280;71022;48.122;11.576;2024-02-21T07:19:09;96248.53;;;6.57;58.94
81608;BME280;71022;48.122;11.576;2024-02-21T07:21:37;96245.53;;;6.67;59.20
81608;BME280;71022;48.122;11.576;2024-02-21T07:24:06;96234.38;;;6.77;58.33
81608;BME280;71022;48.122;11.576;2024-02-21T07:26:35;96238.19;;;6.76;57.80
81608;BME280;71022;48.122;11.576;2024-02-21T07:29:02;96235.09;;;6.69;58.23
81608;BME280;71022;48.122;11.576;2024-02-21T07:31:29;96237.38;;;6.76;57.64
81608;BME280;71022;48.122;11.576;2024-02-21T07:33:56;96233.75;;;6.80;57.13
81608;BME280;71022;48.122;11.576;2024-02-21T07:36:30;96234.22;;;6.82;57.29
81608;BME280;71022;48.122;11.576;2024-02-21T07:38:58;96226.91;;;6.69;57.34
81608;BME280;71022;48.122;11.576;2024-02-21T07:41:25;96220.56;;;6.82;57.48
81608;BME280;71022;48.122;11.576;2024-02-21T07:43:53;96213.41;;;6.64;58.37
81608;BME280;71022;48.122;11.576;2024-02-21T07:46:20;96217.53;;;6.53;58.03
81608;BME280;71022;48.122;11.576;2024-02-21T07:48:48;96214.56;;;6.41;59.02
81608;BME280;71022;48.122;11.576;2024-02-21T07:51:15;96214.19;;;6.34;58.43
81608;BME280;71022;48.122;11.576;2024-02-21T07:53:45;96205.91;;;6.39;58.65
81608;BME280;71022;48.122;11.576;2024-02-21T07:56:12;96199.06;;;6.28;58.11
81608;BME280;71022;48.122;11.576;2024-02-21T07:58:42;96210.13;;;6.84;57.38
81608;BME280;71022;48.122;11.576;2024-02-21T08:01:10;96199.38;;;7.27;56.58
81608;BME280;71022;48.122;11.576;2024-02-21T08:03:37;96194.47;;;7.63;55.10
81608;BME280;71022;48.122;11.576;2024-02-21T08:06:05;96185.28;;;7.68;54.25
81608;BME280;71022;48.122;11.576;2024-02-21T08:08:32;96179.81;;;7.76;54.60
81608;BME280;71022;48.122;11.576;2024-02-21T08:10:59;96170.66;;;7.81;53.25
81608;BME280;71022;48.122;11.576;2024-02-21T08:13:27;96157.31;;;7.71;54.14
81608;BME280;71022;48.122;11.576;2024-02-21T08:15:56;96153.25;;;8.20;53.48
81608;BME280;71022;48.122;11.576;2024-02-21T08:18:24;96148.06;;;8.53;52.11
81608;BME280;71022;48.122;11.576;2024-02-21T08:20:51;96142.94;;;8.89;51.36
81608;BME280;71022;48.122;11.576;2024-02-21T08:23:19;96149.19;;;8.98;51.09
81608;BME280;71022;48.122;11.576;2024-02-21T08:25:46;96147.88;;;9.04;50.24
81608;BME280;71022;48.122;11.576;2024-02-21T08:28:13;96149.06;;;8.86;51.41
81608;BME280;71022;48.122;11.576;2024-02-21T08:30:41;96142.94;;;8.25;50.97
81608;BME280;71022;48.122;11.576;2024-02-21T08:33:15;96145.50;;;8.94;50.40
81608;BME280;71022;48.122;11.576;2024-02-21T08:35:43;96142.03;;;9.35;48.88
81608;BME280;71022;48.122;11.576;2024-02-21T08:38:11;96136.03;;;9.83;48.23
81608;BME280;71022;48.122;11.576;2024-02-21T08:40:38;96141.28;;;10.17;46.04
81608;BME280;71022;48.122;11.576;2024-02-21T08:43:05;96137.78;;;10.08;45.35
81608;BME280;71022;48.122;11.576;2024-02-21T08:45:32;96139.13;;;9.81;46.55
81608;BME280;71022;48.122;11.576;2024-02-21T08:48:00;96148.34;;;9.97;46.43
81608;BME280;71022;48.122;11.576;2024-02-21T08:50:27;96151.03;;;10.06;48.66
81608;BME280;71022;48.122;11.576;2024-02-21T08:52:56;96151.22;;;10.01;45.31
81608;BME280;71022;48.122;11.576;2024-02-21T08:55:23;96144.31;;;9.95;45.84
81608;BME280;71022;48.122;11.576;2024-02-21T08:57:51;96150.75;;;9.58;46.69
81608;BME280;71022;48.122;11.576;2024-02-21T09:00:18;96149.56;;;10.09;45.93
81608;BME280;71022;48.122;11.576;2024-02-21T09:02:50;96137.31;;;11.08;44.68
81608;BME280;71022;48.122;11.576;2024-02-21T09:05:18;96143.84;;;11.16;42.04
81608;BME280;71022;48.122;11.576;2024-02-21T09:07:46;96136.16;;;10.73;43.20
81608;BME280;71022;48.122;11.576;2024-02-21T09:10:14;96136.19;;;10.40;43.79
81608;BME280;71022;48.122;11.576;2024-02-21T09:12:41;96134.78;;;10.79;44.12
81608;BME280;71022;48.122;11.576;2024-02-21T09:15:08;96129.06;;;11.08;42.55
81608;BME280;71022;48.122;11.576;2024-02-21T09:17:36;96140.88;;;10.96;42.28
81608;BME280;71022;48.122;11.576;2024-02-21T09:20:03;96140.72;;;11.65;41.47
81608;BME280;71022;48.122;11.576;2024-02-21T09:22:31;96137.31;;;11.32;42.17
81608;BME280;71022;48.122;11.576;2024-02-21T09:25:01;96134.34;;;11.37;41.78
81608;BME280;71022;48.122;11.576;2024-02-21T09:27:30;96146.03;;;11.71;41.01
81608;BME280;71022;48.122;11.576;2024-02-21T09:29:58;96147.03;;;11.66;40.38
81608;BME280;71022;48.122;11.576;2024-02-21T09:32:25;96141.19;;;11.80;41.23
81608;BME280;71022;48.122;11.576;2024-02-21T09:34:53;96143.28;;;11.22;41.45
81608;BME280;71022;48.122;11.576;2024-02-21T09:37:26;96144.88;;;10.75;42.69
81608;BME280;71022;48.122;11.576;2024-02-21T09:39:53;96143.94;;;10.71;43.13
81608;BME280;71022;48.122;11.576;2024-02-21T09:42:21;96142.66;;;11.65;42.50
81608;BME280;71022;48.122;11.576;2024-02-21T09:44:51;96141.22;;;11.07;42.67
81608;BME280;71022;48.122;11.576;2024-02-21T09:48:17;96127.66;;;11.50;42.08
81608;BME280;71022;48.122;11.576;2024-02-21T09:50:21;96130.22;;;11.55;40.66
81608;BME280;71022;48.122;11.576;2024-02-21T09:52:51;96121.94;;;11.68;41.99
81608;BME280;71022;48.122;11.576;2024-02-21T09:55:22;96122.41;;;11.45;41.37
81608;BME280;71022;48.122;11.576;2024-02-21T09:57:51;96111.00;;;10.95;43.11
81608;BME280;71022;48.122;11.576;2024-02-21T10:00:19;96112.13;;;11.30;41.75
81608;BME280;71022;48.122;11.576;2024-02-21T10:02:49;96119.91;;;11.28;41.88
81608;BME280;71022;48.122;11.576;2024-02-21T10:05:17;96117.38;;;11.23;42.66
81608;BME280;71022;48.122;11.576;2024-02-21T10:07:44;96116.50;;;11.19;42.30
81608;BME280;71022;48.122;11.576;2024-02-21T10:10:12;96114.75;;;11.15;42.20
81608;BME280;71022;48.122;11.576;2024-02-21T10:12:50;96108.75;;;11.61;41.03
81608;BME280;71022;48.122;11.576;2024-02-21T10:15:22;96097.69;;;11.33;42.16
81608;BME280;71022;48.122;11.576;2024-02-21T10:18:00;96099.03;;;11.51;40.54
81608;BME280;71022;48.122;11.576;2024-02-21T10:20:27;96096.22;;;12.15;40.38
81608;BME280;71022;48.122;11.576;2024-02-21T10:23:02;96099.25;;;11.98;38.64
81608;BME280;71022;48.122;11.576;2024-02-21T10:25:30;96096.25;;;11.76;38.92
81608;BME280;71022;48.122;11.576;2024-02-21T10:27:58;96105.66;;;11.62;39.55
81608;BME280;71022;48.122;11.576;2024-02-21T10:30:25;96101.06;;;11.79;39.46
81608;BME280;71022;48.122;11.576;2024-02-21T10:32:53;96088.94;;;12.23;39.84
81608;BME280;71022;48.122;11.576;2024-02-21T10:37:58;96079.66;;;12.00;38.20
81608;BME280;71022;48.122;11.576;2024-02-21T10:40:27;96082.03;;;12.29;38.17
81608;BME280;71022;48.122;11.576;2024-02-21T10:42:58;96071.81;;;12.30;37.91
81608;BME280;71022;48.122;11.576;2024-02-21T10:45:36;96068.00;;;12.34;38.60
81608;BME280;71022;48.122;11.576;2024-02-21T10:48:14;96055.69;;;12.16;37.30
81608;BME280;71022;48.122;11.576;2024-02-21T10:51:01;96043.75;;;12.24;38.06
81608;BME280;71022;48.122;11.576;2024-02-21T10:56:38;96030.34;;;12.54;37.20
81608;BME280;71022;48.122;11.576;2024-02-21T10:59:07;96026.59;;;12.46;36.71
81608;BME280;71022;48.122;11.576;2024-02-21T11:01:35;96020.47;;;12.37;37.14
81608;BME280;71022;48.122;11.576;2024-02-21T11:04:05;96013.41;;;13.02;37.43
81608;BME280;71022;48.122;11.576;2024-02-21T11:06:34;96016.72;;;13.08;35.56
81608;BME280;71022;48.122;11.576;2024-02-21T11:09:07;96008.47;;;12.76;35.60
81608;BME280;71022;48.122;11.576;2024-02-21T11:11:40;95995.06;;;12.75;36.06
81608;BME280;71022;48.122;11.576;2024-02-21T11:14:10;95990.50;;;12.83;34.76
81608;BME280;71022;48.122;11.576;2024-02-21T11:16:41;95985.47;;;12.69;34.58
81608;BME280;71022;48.122;11.576;2024-02-21T11:19:19;95987.50;;;12.56;34.70
81608;BME280;71022;48.122;11.576;2024-02-21T11:21:47;95978.06;;;12.57;35.63
81608;BME280;71022;48.122;11.576;2024-02-21T11:24:28;95970.97;;;12.56;35.68
81608;BME280;71022;48.122;11.576;2024-02-21T11:27:19;95961.53;;;12.73;34.80
81608;BME280;71022;48.122;11.576;2024-02-21T11:29:58;95949.97;;;12.67;34.74
81608;BME280;71022;48.122;11.576;2024-02-21T11:32:26;95951.13;;;12.66;35.10
81608;BME280;71022;48.122;11.576;2024-02-21T11:35:02;95950.16;;;12.74;34.72
81608;BME280;71022;48.122;11.576;2024-02-21T11:37:32;95950.47;;;12.89;33.46
81608;BME280;71022;48.122;11.576;2024-02-21T11:40:07;95935.69;;;12.97;32.35
81608;BME280;71022;48.122;11.576;2024-02-21T11:42:38;95930.88;;;12.94;32.39
81608;BME280;71022;48.122;11.576;2024-02-21T11:45:06;95925.75;;;13.08;32.14
81608;BME280;71022;48.122;11.576;2024-02-21T11:47:33;95926.78;;;13.03;32.43
81608;BME280;71022;48.122;11.576;2024-02-21T11:50:01;95919.66;;;13.02;32.00
81608;BME280;71022;48.122;11.576;2024-02-21T11:52:30;95907.28;;;13.12;32.08
81608;BME280;71022;48.122;11.576;2024-02-21T11:54:57;95910.06;;;13.12;31.12
81608;BME280;71022;48.122;11.576;2024-02-21T11:57:32;95906.22;;;13.16;31.27
81608;BME280;71022;48.122;11.576;2024-02-21T12:00:11;95892.38;;;12.97;31.27
81608;BME280;71022;48.122;11.576;2024-02-21T12:02:39;95891.56;;;13.12;31.78
81608;BME280;71022;48.122;11.576;2024-02-21T12:05:07;95887.25;;;13.15;32.70
81608;BME280;71022;48.122;11.576;2024-02-21T12:07:37;95875.09;;;13.16;32.61
81608;BME280;71022;48.122;11.576;2024-02-21T12:10:08;95868.41;;;13.17;32.84
81608;BME280;71022;48.122;11.576;2024-02-21T12:12:37;95865.94;;;13.96;32.27
81608;BME280;71022;48.122;11.576;2024-02-21T12:15:05;95863.53;;;13.49;31.38
81608;BME280;71022;48.122;11.576;2024-02-21T12:17:34;95859.19;;;13.70;31.25
81608;BME280;71022;48.122;11.576;2024-02-21T12:20:06;95868.81;;;13.57;30.94
81608;BME280;71022;48.122;11.576;2024-02-21T12:22:41;95852.81;;;13.47;30.88
81608;BME280;71022;48.122;11.576;2024-02-21T12:25:19;95843.56;;;13.36;31.05
81608;BME280;71022;48.122;11.576;2024-02-21T12:27:50;95844.50;;;13.44;29.83
81608;BME280;71022;48.122;11.576;2024-02-21T12:30:17;95841.38;;;13.45;30.09
81608;BME280;71022;48.122;11.576;2024-02-21T12:32:48;95830.41;;;13.49;29.98
81608;BME280;71022;48.122;11.576;2024-02-21T12:35:16;95827.75;;;13.33;29.11
81608;BME280;71022;48.122;11.576;2024-02-21T12:37:44;95825.59;;;13.23;29.29
81608;BME280;71022;48.122;11.576;2024-02-21T12:40:12;95815.91;;;13.32;29.42
81608;BME280;71022;48.122;11.576;2024-02-21T12:42:41;95810.31;;;13.29;29.60
81608;BME280;71022;48.122;11.576;2024-02-21T12:45:08;95806.63;;;13.41;29.35
81608;BME280;71022;48.122;11.576;2024-02-21T12:47:36;95800.72;;;13.42;29.33
81608;BME280;71022;48.122;11.576;2024-02-21T12:50:03;95795.63;;;13.44;29.42
81608;BME280;71022;48.122;11.576;2024-02-21T12:52:34;95787.47;;;13.51;28.93
81608;BME280;71022;48.122;11.576;2024-02-21T12:55:02;95789.06;;;13.29;27.51
81608;BME280;71022;48.122;11.576;2024-02-21T12:57:29;95783.00;;;13.43;28.29
81608;BME280;71022;48.122;11.576;2024-02-21T12:59:57;95772.56;;;13.33;27.59
81608;BME280;71022;48.122;11.576;2024-02-21T13:02:24;95774.28;;;13.41;27.88
81608;BME280;71022;48.122;11.576;2024-02-21T13:04:52;95757.63;;;13.34;26.86
81608;BME280;71022;48.122;11.576;2024-02-21T13:07:19;95758.47;;;13.15;27.81
81608;BME280;71022;48.122;11.576;2024-02-21T13:09:46;95755.91;;;13.07;28.37